Betty Jo — WDF8736 — position and weather

sailwx.info

Track history (hours):
 
Tides and Currents Weather Stations Pressure Air Temp Water Temp Dewpoint Dewpoint Depression Visibility Wind Speed Wind Dir Waves Ship Positions

Betty Jo

Owner: Inland Marine, Inc., Chesapeake, VA. More information available from US FCC via Universal Licensing System and Coast Guard Vessel Documentation Center.

Last reported at 2017-Oct-16 01:00 UTC. Time now 2017-Oct-18 05:31 UTC.
Position N 38°46' W 076°21'.

Length 20 m; draft 3 m.

Type: Tug. MMSI: 367498030.

Date/timePositionNaut miles runAvg speedWind from/ knotsBaromVisibWave heightAir tempDewpointWater temp
2017-Oct-16 01:00N 38°46' W 076°21'7 2.7
2017-Oct-15 22:21N 38°52' W 076°27'2 6.8
2017-Oct-15 22:01N 38°52' W 076°30'2 4.1
2017-Oct-15 21:31N 38°51' W 076°33'0 0.0
2017-Oct-13 18:13N 38°51' W 076°33'0 0.6
2017-Oct-13 18:01N 38°51' W 076°33'3 6.7
2017-Oct-13 17:29N 38°52' W 076°28'  
2017-Oct-10 11:01N 38°46' W 076°21'0 4.6
2017-Oct-10 11:00N 38°46' W 076°21'0 0.0
2017-Oct-10 07:45N 38°46' W 076°21'0 0.0
2017-Oct-10 07:25N 38°46' W 076°21'0 0.0
2017-Oct-10 07:00N 38°46' W 076°21'0 0.0
2017-Oct-10 06:30N 38°46' W 076°21'0 0.0
2017-Oct-10 06:00N 38°46' W 076°21'0 0.0
2017-Oct-10 05:30N 38°46' W 076°21'0 0.0
2017-Oct-10 05:00N 38°46' W 076°21'0 0.0
2017-Oct-09 08:02N 38°46' W 076°22'0 0.2
2017-Oct-09 08:00N 38°46' W 076°22'0 0.0
2017-Oct-09 07:30N 38°46' W 076°22'0 0.0
2017-Oct-09 05:39N 38°46' W 076°22'1 0.0
2017-Oct-07 13:21N 38°47' W 076°22'0 0.0
2017-Oct-07 12:03N 38°47' W 076°22'0 1.5
2017-Oct-07 11:56N 38°47' W 076°22'1 1.6
2017-Oct-07 11:28N 38°46' W 076°22'0 0.0
2017-Oct-07 11:00N 38°46' W 076°22'0 0.0
2017-Oct-07 10:30N 38°46' W 076°22'0 0.0
2017-Oct-07 10:00N 38°46' W 076°22'0 0.0
2017-Oct-07 09:30N 38°46' W 076°22'0 0.0
2017-Oct-07 09:00N 38°46' W 076°22'0 0.0
2017-Oct-07 08:30N 38°46' W 076°22'0 0.0
2017-Oct-07 08:00N 38°46' W 076°22'0 0.0
2017-Oct-07 07:31N 38°46' W 076°22'0 0.0
2017-Oct-07 07:00N 38°46' W 076°22'0 0.0
2017-Oct-07 06:31N 38°46' W 076°22'0 0.0
2017-Oct-07 06:00N 38°46' W 076°22'0 0.0
2017-Oct-07 05:30N 38°46' W 076°22'0 0.0
2017-Oct-07 05:00N 38°46' W 076°22'0 0.0
2017-Oct-07 04:30N 38°46' W 076°22'0 0.0
2017-Oct-07 04:00N 38°46' W 076°22'0 0.0
2017-Oct-07 03:27N 38°46' W 076°22'0 0.0
2017-Oct-07 02:46N 38°46' W 076°22'0 0.0
2017-Oct-07 02:30N 38°46' W 076°22'1 0.1
2017-Oct-06 12:06N 38°47' W 076°22'1 0.5
2017-Oct-06 10:29N 38°46' W 076°22'0 0.0
2017-Oct-06 09:50N 38°46' W 076°22'0 0.0
2017-Oct-06 09:28N 38°46' W 076°22'0 0.0
2017-Oct-06 08:57N 38°46' W 076°22'0 0.0
2017-Oct-06 08:27N 38°46' W 076°22'0 0.0
2017-Oct-06 08:00N 38°46' W 076°22'0 0.0
2017-Oct-06 07:30N 38°46' W 076°22'0 0.0
2017-Oct-06 07:00N 38°46' W 076°22'0 0.0
2017-Oct-06 06:30N 38°46' W 076°22'0 0.0
2017-Oct-06 05:57N 38°46' W 076°22'0 0.0
2017-Oct-06 05:25N 38°46' W 076°22'0 0.0
2017-Oct-06 04:38N 38°46' W 076°22'0 0.1
2017-Oct-06 04:30N 38°46' W 076°22'0 0.0
2017-Oct-06 03:57N 38°46' W 076°22'0 0.0
2017-Oct-06 02:31N 38°46' W 076°22'0 0.0
2017-Oct-06 02:21N 38°46' W 076°22'0 0.0
2017-Oct-06 01:41N 38°46' W 076°22'0 0.0
2017-Oct-06 01:17N 38°46' W 076°22'  
Track history (hours):
 
Tides and Currents Weather Stations Pressure Air Temp Water Temp Dewpoint Dewpoint Depression Visibility Wind Speed Wind Dir Waves Ship Positions

Betty Jo

Owner: Inland Marine, Inc., Chesapeake, VA. More information available from US FCC via Universal Licensing System and Coast Guard Vessel Documentation Center.

Last reported at 2017-Oct-16 01:00 UTC. Time now 2017-Oct-18 05:31 UTC.
Position N 38°46' W 076°21'.

Length 20 m; draft 3 m.

Type: Tug. MMSI: 367498030.

Date/timePositionNaut miles runAvg speedWind from/ knotsBaromVisibWave heightAir tempDewpointWater temp
2017-Oct-16 01:00N 38°46' W 076°21'7 2.7
2017-Oct-15 22:21N 38°52' W 076°27'2 6.8
2017-Oct-15 22:01N 38°52' W 076°30'2 4.1
2017-Oct-15 21:31N 38°51' W 076°33'0 0.0
2017-Oct-13 18:13N 38°51' W 076°33'0 0.6
2017-Oct-13 18:01N 38°51' W 076°33'3 6.7
2017-Oct-13 17:29N 38°52' W 076°28'  
2017-Oct-10 11:01N 38°46' W 076°21'0 4.6
2017-Oct-10 11:00N 38°46' W 076°21'0 0.0
2017-Oct-10 07:45N 38°46' W 076°21'0 0.0
2017-Oct-10 07:25N 38°46' W 076°21'0 0.0
2017-Oct-10 07:00N 38°46' W 076°21'0 0.0
2017-Oct-10 06:30N 38°46' W 076°21'0 0.0
2017-Oct-10 06:00N 38°46' W 076°21'0 0.0
2017-Oct-10 05:30N 38°46' W 076°21'0 0.0
2017-Oct-10 05:00N 38°46' W 076°21'0 0.0
2017-Oct-09 08:02N 38°46' W 076°22'0 0.2
2017-Oct-09 08:00N 38°46' W 076°22'0 0.0
2017-Oct-09 07:30N 38°46' W 076°22'0 0.0
2017-Oct-09 05:39N 38°46' W 076°22'1 0.0
2017-Oct-07 13:21N 38°47' W 076°22'0 0.0
2017-Oct-07 12:03N 38°47' W 076°22'0 1.5
2017-Oct-07 11:56N 38°47' W 076°22'1 1.6
2017-Oct-07 11:28N 38°46' W 076°22'0 0.0
2017-Oct-07 11:00N 38°46' W 076°22'0 0.0
2017-Oct-07 10:30N 38°46' W 076°22'0 0.0
2017-Oct-07 10:00N 38°46' W 076°22'0 0.0
2017-Oct-07 09:30N 38°46' W 076°22'0 0.0
2017-Oct-07 09:00N 38°46' W 076°22'0 0.0
2017-Oct-07 08:30N 38°46' W 076°22'0 0.0
2017-Oct-07 08:00N 38°46' W 076°22'0 0.0
2017-Oct-07 07:31N 38°46' W 076°22'0 0.0
2017-Oct-07 07:00N 38°46' W 076°22'0 0.0
2017-Oct-07 06:31N 38°46' W 076°22'0 0.0
2017-Oct-07 06:00N 38°46' W 076°22'0 0.0
2017-Oct-07 05:30N 38°46' W 076°22'0 0.0
2017-Oct-07 05:00N 38°46' W 076°22'0 0.0
2017-Oct-07 04:30N 38°46' W 076°22'0 0.0
2017-Oct-07 04:00N 38°46' W 076°22'0 0.0
2017-Oct-07 03:27N 38°46' W 076°22'0 0.0
2017-Oct-07 02:46N 38°46' W 076°22'0 0.0
2017-Oct-07 02:30N 38°46' W 076°22'1 0.1
2017-Oct-06 12:06N 38°47' W 076°22'1 0.5
2017-Oct-06 10:29N 38°46' W 076°22'0 0.0
2017-Oct-06 09:50N 38°46' W 076°22'0 0.0
2017-Oct-06 09:28N 38°46' W 076°22'0 0.0
2017-Oct-06 08:57N 38°46' W 076°22'0 0.0
2017-Oct-06 08:27N 38°46' W 076°22'0 0.0
2017-Oct-06 08:00N 38°46' W 076°22'0 0.0
2017-Oct-06 07:30N 38°46' W 076°22'0 0.0
2017-Oct-06 07:00N 38°46' W 076°22'0 0.0
2017-Oct-06 06:30N 38°46' W 076°22'0 0.0
2017-Oct-06 05:57N 38°46' W 076°22'0 0.0
2017-Oct-06 05:25N 38°46' W 076°22'0 0.0
2017-Oct-06 04:38N 38°46' W 076°22'0 0.1
2017-Oct-06 04:30N 38°46' W 076°22'0 0.0
2017-Oct-06 03:57N 38°46' W 076°22'0 0.0
2017-Oct-06 02:31N 38°46' W 076°22'0 0.0
2017-Oct-06 02:21N 38°46' W 076°22'0 0.0
2017-Oct-06 01:41N 38°46' W 076°22'0 0.0
2017-Oct-06 01:17N 38°46' W 076°22'  

Dump ship's entire track history